Time;durP1;ratioP1;P1;durP2;ratioP2;P2;SDS_P1;SDS_P2;PMS_P1;PMS_P2;Temp;Humidity;BMP_temperature;BMP_pressure;BME280_temperature;BME280_humidity;BME280_pressure;Samples;Min_cycle;Max_cycle;Signal;HPM_P1;HPM_P2
2023/09/11 00:01:41;;;;;;;53.17;46.77;;;18.40;93.40;;;;;;5072404;28;20369;-47
2023/09/11 00:04:12;;;;;;;51.10;45.50;;;18.40;93.40;;;;;;5051019;28;20291;-46
2023/09/11 00:06:39;;;;;;;55.85;49.78;;;18.40;93.40;;;;;;5071647;28;20357;-46
2023/09/11 00:09:06;;;;;;;59.88;51.63;;;18.30;93.30;;;;;;5057491;28;20044;-46
2023/09/11 00:11:33;;;;;;;60.88;51.08;;;18.30;93.30;;;;;;5062600;28;20033;-45
2023/09/11 00:14:01;;;;;;;54.00;46.65;;;18.30;93.30;;;;;;5047452;28;20052;-45
2023/09/11 00:16:27;;;;;;;51.67;45.85;;;18.30;93.30;;;;;;5072227;28;20032;-47
2023/09/11 00:18:56;;;;;;;58.05;50.63;;;18.30;93.30;;;;;;5074573;28;20032;-45
2023/09/11 00:21:23;;;;;;;60.70;50.38;;;18.20;93.20;;;;;;5065514;28;20036;-45
2023/09/11 00:23:50;;;;;;;54.13;48.00;;;18.20;93.20;;;;;;5074935;28;20028;-46
2023/09/11 00:26:16;;;;;;;53.28;43.17;;;18.20;93.30;;;;;;5017476;28;20037;-46
2023/09/11 00:28:43;;;;;;;56.75;48.70;;;18.20;93.30;;;;;;5057075;28;20115;-47
2023/09/11 00:31:10;;;;;;;49.30;43.85;;;18.10;93.30;;;;;;5037833;28;20075;-45
2023/09/11 00:33:36;;;;;;;56.00;46.88;;;18.20;93.30;;;;;;5070566;28;20021;-45
2023/09/11 00:36:04;;;;;;;52.60;46.85;;;18.10;93.30;;;;;;5069678;28;20060;-47
2023/09/11 00:38:31;;;;;;;57.10;47.40;;;18.10;93.30;;;;;;5074533;28;20668;-46
2023/09/11 00:40:58;;;;;;;59.47;51.53;;;18.10;93.40;;;;;;5046522;28;20032;-45
2023/09/11 00:43:25;;;;;;;54.65;48.42;;;18.20;93.50;;;;;;5072579;28;20525;-46
2023/09/11 00:45:51;;;;;;;60.95;53.15;;;18.20;93.60;;;;;;5063563;28;20043;-45
2023/09/11 00:48:21;;;;;;;57.85;50.72;;;18.30;93.70;;;;;;5064876;28;20109;-46
2023/09/11 00:50:49;;;;;;;63.30;54.65;;;18.30;93.70;;;;;;5057029;28;20024;-45
2023/09/11 00:53:17;;;;;;;58.50;49.53;;;18.30;93.80;;;;;;5056385;28;20135;-44
2023/09/11 00:55:45;;;;;;;56.58;49.83;;;18.30;93.80;;;;;;5039052;28;20108;-45
2023/09/11 00:58:17;;;;;;;55.45;47.42;;;18.30;93.60;;;;;;5034384;28;20075;-46
2023/09/11 01:00:46;;;;;;;51.15;45.55;;;18.20;93.60;;;;;;5056480;28;20024;-45
2023/09/11 01:03:13;;;;;;;49.10;41.67;;;18.20;93.60;;;;;;5064340;28;20028;-46
2023/09/11 01:05:42;;;;;;;59.63;49.33;;;18.20;93.60;;;;;;5034447;28;20481;-45
2023/09/11 01:08:09;;;;;;;55.05;47.50;;;18.10;93.50;;;;;;5034278;28;20486;-44
2023/09/11 01:10:36;;;;;;;54.70;47.92;;;18.10;93.60;;;;;;5058719;28;20044;-44
2023/09/11 01:13:06;;;;;;;55.22;47.50;;;18.10;93.50;;;;;;5073920;28;20050;-44
2023/09/11 01:15:52;;;;;;;55.97;49.38;;;18.10;93.60;;;;;;5069058;28;20339;-45
2023/09/11 01:18:27;;;;;;;52.60;46.92;;;18.10;93.60;;;;;;5029294;28;20059;-44
2023/09/11 01:21:12;;;;;;;61.05;54.47;;;18.20;93.60;;;;;;5048271;28;20693;-45
2023/09/11 01:24:08;;;;;;;58.78;52.03;;;18.10;93.70;;;;;;5050326;28;20449;-44
2023/09/11 01:26:54;;;;;;;60.75;51.38;;;18.10;93.70;;;;;;5072033;28;20032;-44
2023/09/11 01:29:26;;;;;;;65.60;54.50;;;18.20;93.80;;;;;;5073667;28;20453;-45
2023/09/11 01:31:54;;;;;;;64.03;56.78;;;18.20;93.80;;;;;;5051520;28;20032;-43
2023/09/11 01:34:21;;;;;;;69.65;60.33;;;18.20;93.90;;;;;;5047472;28;20500;-44
2023/09/11 01:36:49;;;;;;;66.82;57.45;;;18.30;94.00;;;;;;5073659;28;20442;-45
2023/09/11 01:39:16;;;;;;;75.38;62.13;;;18.30;94.20;;;;;;5046177;28;20027;-45
2023/09/11 01:41:48;;;;;;;75.50;66.60;;;18.40;94.30;;;;;;5048671;28;20037;-45
2023/09/11 01:44:41;;;;;;;75.78;65.30;;;18.40;94.30;;;;;;5073249;28;20461;-44
2023/09/11 01:47:12;;;;;;;74.78;60.20;;;18.40;94.30;;;;;;5045556;28;20051;-45
2023/09/11 01:49:39;;;;;;;73.72;59.92;;;18.40;94.20;;;;;;5036502;28;20026;-45
2023/09/11 01:52:13;;;;;;;73.75;61.88;;;18.40;94.20;;;;;;5054412;28;20044;-44
2023/09/11 01:54:43;;;;;;;71.30;60.35;;;18.50;94.20;;;;;;5061336;28;20044;-45
2023/09/11 01:57:10;;;;;;;67.90;59.33;;;18.50;94.20;;;;;;5047126;28;20029;-44
2023/09/11 01:59:36;;;;;;;73.97;63.22;;;18.40;94.10;;;;;;5064797;28;20029;-45
2023/09/11 02:02:04;;;;;;;74.13;62.97;;;18.50;94.10;;;;;;5057759;28;20036;-44
2023/09/11 02:04:30;;;;;;;66.50;58.22;;;18.50;94.10;;;;;;5064932;28;20036;-45
2023/09/11 02:06:57;;;;;;;73.03;62.88;;;18.40;94.10;;;;;;5073072;28;20353;-44
2023/09/11 02:09:24;;;;;;;64.15;55.50;;;18.50;94.10;;;;;;5067910;28;20509;-44
2023/09/11 02:11:51;;;;;;;63.85;53.33;;;18.50;94.10;;;;;;5043771;28;20381;-44
2023/09/11 02:14:18;;;;;;;58.72;52.40;;;18.50;94.10;;;;;;5051953;28;20025;-45
2023/09/11 02:16:45;;;;;;;63.70;54.65;;;18.50;94.00;;;;;;5040066;28;20331;-44
2023/09/11 02:19:11;;;;;;;65.47;57.05;;;18.40;94.00;;;;;;5038388;28;20033;-45
2023/09/11 02:21:38;;;;;;;62.58;55.70;;;18.40;93.90;;;;;;5072480;28;20025;-44
2023/09/11 02:24:05;;;;;;;59.88;52.92;;;18.40;93.90;;;;;;5044375;28;20636;-45
2023/09/11 02:26:32;;;;;;;61.75;54.55;;;18.40;93.80;;;;;;5037271;28;20347;-45
2023/09/11 02:28:59;;;;;;;61.38;54.47;;;18.40;93.80;;;;;;5068193;28;20437;-45
2023/09/11 02:31:25;;;;;;;66.93;59.78;;;18.40;93.80;;;;;;5068420;28;20090;-44
2023/09/11 02:33:52;;;;;;;66.68;57.85;;;18.40;93.80;;;;;;5072580;28;20016;-43
2023/09/11 02:36:18;;;;;;;64.00;55.60;;;18.30;93.90;;;;;;5054973;28;20059;-45
2023/09/11 02:38:45;;;;;;;72.40;60.92;;;18.30;93.90;;;;;;5053182;28;20391;-44
2023/09/11 02:41:12;;;;;;;75.55;67.05;;;18.40;93.80;;;;;;5041004;28;20068;-44
2023/09/11 02:43:41;;;;;;;65.57;58.42;;;18.40;93.80;;;;;;5068717;28;20358;-44
2023/09/11 02:46:08;;;;;;;70.73;61.80;;;18.40;93.80;;;;;;5051448;28;20146;-43
2023/09/11 02:48:42;;;;;;;65.60;57.47;;;18.40;93.60;;;;;;5036846;28;20120;-43
2023/09/11 02:51:08;;;;;;;64.53;57.22;;;18.40;93.70;;;;;;5051222;28;20043;-44
2023/09/11 02:53:35;;;;;;;57.90;51.35;;;18.40;93.60;;;;;;5023973;28;20447;-44
2023/09/11 02:56:02;;;;;;;67.25;58.55;;;18.30;93.50;;;;;;5034937;28;20035;-44
2023/09/11 02:58:28;;;;;;;62.45;55.35;;;18.30;93.30;;;;;;5040169;28;20043;-44
2023/09/11 03:00:54;;;;;;;66.15;57.30;;;18.30;93.30;;;;;;5041289;28;20025;-44
2023/09/11 03:03:21;;;;;;;62.95;55.65;;;18.30;93.30;;;;;;5058894;28;20089;-43
2023/09/11 03:06:08;;;;;;;63.17;56.50;;;18.30;93.30;;;;;;5025899;28;20061;-44
2023/09/11 03:08:37;;;;;;;62.35;55.60;;;18.20;93.20;;;;;;5046993;28;20434;-44
2023/09/11 03:11:09;;;;;;;71.40;60.27;;;18.20;93.20;;;;;;5045942;28;20677;-44
2023/09/11 03:13:39;;;;;;;67.30;58.47;;;18.20;93.20;;;;;;5033155;28;20772;-45
2023/09/11 03:16:23;;;;;;;61.88;54.17;;;18.20;93.20;;;;;;5034987;28;20037;-43
2023/09/11 03:18:49;;;;;;;60.78;54.30;;;18.20;93.20;;;;;;5041394;28;20036;-44
2023/09/11 03:21:16;;;;;;;56.53;50.40;;;18.20;93.10;;;;;;5027170;28;20374;-43
2023/09/11 03:23:43;;;;;;;58.88;52.50;;;18.30;93.20;;;;;;5054460;28;20054;-45
2023/09/11 03:26:17;;;;;;;57.25;51.00;;;18.20;93.00;;;;;;5056694;28;20366;-43
2023/09/11 03:28:47;;;;;;;57.03;50.75;;;18.20;92.90;;;;;;5051658;28;20079;-43
2023/09/11 03:31:15;;;;;;;55.22;49.30;;;18.20;92.90;;;;;;5056375;28;20021;-43
2023/09/11 03:33:41;;;;;;;52.80;47.03;;;18.20;92.90;;;;;;5058906;28;20028;-43
2023/09/11 03:36:08;;;;;;;57.13;51.00;;;18.20;93.00;;;;;;5053105;28;20029;-44
2023/09/11 03:38:34;;;;;;;55.13;49.30;;;18.20;92.90;;;;;;5038914;28;20021;-46
2023/09/11 03:41:03;;;;;;;54.25;48.47;;;18.10;92.80;;;;;;5021100;28;20052;-44
2023/09/11 03:43:32;;;;;;;56.92;51.08;;;18.20;92.90;;;;;;5051910;28;20029;-43
2023/09/11 03:45:59;;;;;;;55.17;49.53;;;18.20;92.90;;;;;;5037831;28;20087;-44
2023/09/11 03:48:26;;;;;;;58.25;51.80;;;18.20;92.90;;;;;;5045907;28;20025;-44
2023/09/11 03:50:55;;;;;;;55.75;49.67;;;18.20;92.90;;;;;;5038556;28;20057;-43
2023/09/11 03:53:22;;;;;;;52.30;45.17;;;18.20;92.90;;;;;;5021225;28;20497;-43
2023/09/11 03:55:48;;;;;;;55.58;49.75;;;18.20;92.90;;;;;;5055998;28;20024;-45
2023/09/11 03:58:16;;;;;;;50.30;45.05;;;18.20;92.80;;;;;;5039251;28;20021;-43
2023/09/11 04:00:44;;;;;;;53.85;48.17;;;18.20;92.90;;;;;;5057209;28;20033;-44
2023/09/11 04:03:11;;;;;;;50.35;45.05;;;18.20;92.80;;;;;;5069617;28;20040;-43
2023/09/11 04:05:38;;;;;;;49.15;43.83;;;18.20;92.90;;;;;;5069673;28;20078;-44
2023/09/11 04:08:05;;;;;;;54.58;48.85;;;18.20;92.80;;;;;;5061288;28;20054;-43
2023/09/11 04:10:31;;;;;;;52.05;46.50;;;18.20;92.80;;;;;;5072678;28;20039;-43
2023/09/11 04:12:58;;;;;;;52.50;47.08;;;18.20;92.90;;;;;;5018129;28;20022;-43
2023/09/11 04:15:25;;;;;;;48.88;43.70;;;18.20;92.90;;;;;;5042838;28;20378;-43
2023/09/11 04:17:54;;;;;;;50.45;44.88;;;18.20;92.80;;;;;;5074115;28;20090;-43
2023/09/11 04:20:21;;;;;;;48.20;42.70;;;18.20;92.80;;;;;;5075427;28;20013;-44
2023/09/11 04:22:49;;;;;;;49.67;44.58;;;18.20;92.70;;;;;;5064564;28;20033;-43
2023/09/11 04:25:16;;;;;;;48.28;43.08;;;18.20;92.70;;;;;;5049988;28;20036;-43
2023/09/11 04:27:42;;;;;;;53.92;48.25;;;18.20;92.70;;;;;;5064776;28;20029;-44
2023/09/11 04:30:10;;;;;;;48.25;43.25;;;18.20;92.60;;;;;;5039546;28;20079;-44
2023/09/11 04:32:38;;;;;;;47.42;42.45;;;18.20;92.60;;;;;;5026454;28;20086;-44
2023/09/11 04:35:05;;;;;;;50.25;45.03;;;18.20;92.50;;;;;;5067510;28;20028;-43
2023/09/11 04:37:32;;;;;;;50.33;44.90;;;18.10;92.50;;;;;;5046589;28;20044;-44
2023/09/11 04:39:59;;;;;;;51.35;45.80;;;18.10;92.60;;;;;;5069195;28;20457;-43
2023/09/11 04:42:26;;;;;;;46.67;41.78;;;18.10;92.50;;;;;;5057122;28;20115;-44
2023/09/11 04:44:58;;;;;;;49.83;44.83;;;18.10;92.60;;;;;;5067019;28;20032;-45
2023/09/11 04:47:31;;;;;;;49.90;44.63;;;18.10;92.50;;;;;;5064320;28;20032;-43
2023/09/11 04:49:57;;;;;;;50.60;45.25;;;18.10;92.50;;;;;;5055654;28;20028;-44
2023/09/11 04:52:24;;;;;;;47.15;42.38;;;18.00;92.50;;;;;;5054060;28;20127;-43
2023/09/11 04:54:53;;;;;;;48.33;43.20;;;18.00;92.50;;;;;;5054176;28;20040;-44
2023/09/11 04:57:20;;;;;;;49.90;44.80;;;18.10;92.50;;;;;;5051447;28;20119;-45
2023/09/11 04:59:49;;;;;;;48.47;43.65;;;18.00;92.50;;;;;;5044072;28;20048;-44
2023/09/11 05:02:16;;;;;;;47.58;42.63;;;18.00;92.40;;;;;;5067602;28;20036;-44
2023/09/11 05:04:42;;;;;;;47.83;42.83;;;18.00;92.40;;;;;;5045668;28;20029;-44
2023/09/11 05:07:13;;;;;;;51.53;46.20;;;18.00;92.40;;;;;;5049583;28;20405;-44
2023/09/11 05:09:40;;;;;;;45.65;40.95;;;18.00;92.40;;;;;;5034330;28;20030;-44
2023/09/11 05:12:07;;;;;;;47.70;42.63;;;18.10;92.50;;;;;;5058644;28;20460;-45
2023/09/11 05:14:36;;;;;;;45.03;40.47;;;18.10;92.50;;;;;;5052385;28;20037;-46
2023/09/11 05:17:03;;;;;;;47.42;42.80;;;18.10;92.40;;;;;;5061203;28;20521;-43
2023/09/11 05:19:30;;;;;;;45.55;40.90;;;18.10;92.40;;;;;;5069424;28;20372;-43
2023/09/11 05:22:00;;;;;;;45.88;41.25;;;18.10;92.40;;;;;;5061980;28;20025;-43
2023/09/11 05:24:27;;;;;;;45.80;41.25;;;18.10;92.30;;;;;;5046631;28;20040;-44
2023/09/11 05:26:54;;;;;;;43.15;38.90;;;18.10;92.20;;;;;;5050864;28;20060;-44
2023/09/11 05:29:21;;;;;;;45.60;41.03;;;18.10;92.20;;;;;;5068420;28;20036;-43
2023/09/11 05:31:46;;;;;;;45.72;41.00;;;18.10;92.10;;;;;;5061477;28;20017;-43
2023/09/11 05:34:13;;;;;;;48.42;43.58;;;18.10;92.10;;;;;;5056824;28;20338;-45
2023/09/11 05:36:40;;;;;;;45.33;40.53;;;18.10;92.00;;;;;;5047241;28;20437;-45
2023/09/11 05:39:07;;;;;;;39.00;35.13;;;18.20;92.10;;;;;;5037997;28;20454;-44
2023/09/11 05:41:35;;;;;;;43.80;39.72;;;18.10;92.00;;;;;;5059931;28;20468;-45
2023/09/11 05:44:05;;;;;;;44.13;39.45;;;18.10;91.90;;;;;;5036248;28;20044;-44
2023/09/11 05:46:32;;;;;;;37.95;34.38;;;18.20;91.90;;;;;;5052537;28;20045;-44
2023/09/11 05:49:02;;;;;;;43.85;39.33;;;18.20;92.00;;;;;;5055463;28;20044;-44
2023/09/11 05:51:28;;;;;;;40.03;36.08;;;18.30;91.90;;;;;;5033240;28;20366;-45
2023/09/11 05:53:55;;;;;;;43.40;39.15;;;18.30;91.90;;;;;;5033467;28;20030;-44
2023/09/11 05:56:22;;;;;;;37.03;33.45;;;18.30;91.80;;;;;;5032045;28;20110;-46
2023/09/11 05:58:49;;;;;;;37.03;33.53;;;18.40;91.90;;;;;;5037814;28;20042;-45
2023/09/11 06:01:16;;;;;;;40.00;36.22;;;18.40;92.00;;;;;;5048314;28;20033;-45
2023/09/11 06:03:43;;;;;;;43.13;38.88;;;18.40;91.80;;;;;;5052774;28;20033;-45
2023/09/11 06:06:09;;;;;;;38.72;34.72;;;18.50;91.60;;;;;;5034920;28;20439;-44
2023/09/11 06:08:40;;;;;;;38.33;34.58;;;18.50;91.50;;;;;;5052096;28;20071;-44
2023/09/11 06:11:07;;;;;;;36.92;33.42;;;18.50;91.50;;;;;;5014719;28;20370;-44
2023/09/11 06:13:34;;;;;;;38.80;35.00;;;18.60;91.40;;;;;;5033060;28;20076;-44
2023/09/11 06:16:01;;;;;;;35.08;31.67;;;18.60;91.40;;;;;;5040793;28;20150;-44
2023/09/11 06:18:32;;;;;;;34.55;31.23;;;18.60;91.30;;;;;;5043260;28;20030;-44
2023/09/11 06:20:58;;;;;;;35.55;32.05;;;18.70;91.30;;;;;;5043091;28;20020;-44
2023/09/11 06:23:26;;;;;;;38.95;35.25;;;18.70;91.20;;;;;;5034257;28;20091;-45
2023/09/11 06:25:55;;;;;;;39.20;35.08;;;18.80;91.20;;;;;;5048435;28;20024;-45
2023/09/11 06:28:23;;;;;;;35.35;31.55;;;18.80;91.00;;;;;;5044118;28;20388;-45
2023/09/11 06:30:50;;;;;;;31.50;28.48;;;18.90;91.00;;;;;;5047173;28;20048;-44
2023/09/11 06:33:17;;;;;;;32.78;29.77;;;18.90;91.10;;;;;;5038070;28;20033;-45
2023/09/11 06:35:47;;;;;;;33.35;29.95;;;18.90;91.00;;;;;;5050213;28;20028;-45
2023/09/11 06:38:14;;;;;;;35.38;31.15;;;19.00;90.90;;;;;;5049758;28;20048;-45
2023/09/11 06:40:41;;;;;;;34.80;31.20;;;19.10;90.90;;;;;;5049929;28;20434;-45
2023/09/11 06:43:08;;;;;;;32.38;29.13;;;19.10;90.90;;;;;;5036114;28;20086;-45
2023/09/11 06:45:35;;;;;;;33.55;30.33;;;19.20;91.00;;;;;;5067030;28;20088;-45
2023/09/11 06:48:03;;;;;;;33.75;30.58;;;19.30;91.10;;;;;;5055497;28;20564;-46
2023/09/11 06:50:29;;;;;;;32.13;29.13;;;19.40;90.80;;;;;;5057340;28;20037;-45
2023/09/11 06:52:55;;;;;;;32.30;28.50;;;19.40;90.70;;;;;;5046371;28;20365;-46
2023/09/11 06:55:22;;;;;;;32.42;29.10;;;19.40;90.70;;;;;;5041206;28;20048;-48
2023/09/11 06:57:57;;;;;;;32.42;28.38;;;19.40;90.70;;;;;;5051295;28;20104;-47
2023/09/11 07:00:27;;;;;;;31.13;26.83;;;19.50;90.60;;;;;;5060980;28;20812;-49
2023/09/11 07:02:56;;;;;;;30.63;27.10;;;19.60;90.40;;;;;;5041588;28;20036;-50
2023/09/11 07:05:22;;;;;;;27.73;24.90;;;19.60;90.10;;;;;;5047053;28;20031;-49
2023/09/11 07:07:49;;;;;;;26.70;24.27;;;19.70;90.10;;;;;;5051174;28;20547;-47
2023/09/11 07:10:17;;;;;;;31.67;25.58;;;19.70;90.00;;;;;;5030597;28;20047;-46
2023/09/11 07:12:44;;;;;;;26.88;24.23;;;19.80;90.10;;;;;;5035551;28;20622;-46
2023/09/11 07:15:11;;;;;;;27.25;24.42;;;19.90;90.10;;;;;;5033221;28;20028;-47
2023/09/11 07:17:38;;;;;;;26.83;24.20;;;19.90;89.70;;;;;;5049106;28;20041;-48
2023/09/11 07:20:06;;;;;;;27.40;24.58;;;20.00;89.70;;;;;;5044247;28;20462;-47
2023/09/11 07:22:33;;;;;;;25.50;23.02;;;20.10;89.50;;;;;;5045673;28;20037;-48
2023/09/11 07:25:00;;;;;;;25.08;22.70;;;20.20;89.40;;;;;;5047781;28;20021;-48
2023/09/11 07:27:33;;;;;;;25.92;23.42;;;20.30;89.40;;;;;;5044412;28;20441;-47
2023/09/11 07:30:00;;;;;;;23.63;21.23;;;20.40;88.90;;;;;;5038316;28;20028;-47
2023/09/11 07:32:26;;;;;;;26.92;24.25;;;20.50;88.50;;;;;;5055911;28;20086;-48
2023/09/11 07:34:52;;;;;;;23.27;21.08;;;20.60;88.10;;;;;;5042568;28;20407;-50
2023/09/11 07:37:18;;;;;;;24.17;21.20;;;20.80;88.10;;;;;;5047730;28;20057;-49
2023/09/11 07:39:45;;;;;;;24.75;22.20;;;21.10;87.90;;;;;;5058373;28;20456;-48
2023/09/11 07:42:10;;;;;;;22.48;20.10;;;21.30;87.30;;;;;;5047854;28;20063;-49
2023/09/11 07:44:42;;;;;;;21.40;19.13;;;21.60;86.30;;;;;;5050652;28;20056;-53
2023/09/11 07:47:08;;;;;;;21.25;18.95;;;21.90;85.40;;;;;;5035838;28;20418;-50
2023/09/11 07:49:33;;;;;;;20.38;18.27;;;22.30;84.70;;;;;;5065230;28;20111;-51
2023/09/11 07:52:01;;;;;;;21.02;17.05;;;22.50;83.50;;;;;;5064829;28;20136;-51
2023/09/11 07:54:27;;;;;;;25.58;18.52;;;22.90;83.50;;;;;;5052615;28;20086;-52
2023/09/11 07:56:54;;;;;;;18.98;16.92;;;23.00;81.70;;;;;;5060916;28;20033;-51
2023/09/11 07:59:21;;;;;;;20.92;16.70;;;23.40;81.20;;;;;;5047948;28;20029;-53
2023/09/11 08:01:47;;;;;;;16.95;15.18;;;23.50;79.00;;;;;;5042077;28;20037;-56
2023/09/11 08:04:14;;;;;;;19.77;17.20;;;23.70;79.10;;;;;;5057923;28;20457;-55
2023/09/11 08:06:42;;;;;;;19.23;16.55;;;23.90;78.10;;;;;;5054689;28;20438;-52
2023/09/11 08:09:09;;;;;;;21.52;14.15;;;24.10;78.30;;;;;;5057919;28;20028;-54
2023/09/11 08:11:39;;;;;;;27.95;14.10;;;24.30;77.50;;;;;;5066489;28;20541;-57
2023/09/11 08:14:07;;;;;;;17.75;13.50;;;24.40;77.20;;;;;;5030552;28;20025;-53
2023/09/11 08:16:36;;;;;;;23.45;13.15;;;24.70;77.50;;;;;;5015826;28;20397;-53
2023/09/11 08:19:04;;;;;;;15.25;12.50;;;25.00;76.80;;;;;;5055497;28;20606;-53
2023/09/11 08:21:31;;;;;;;22.27;13.60;;;25.30;76.80;;;;;;5036333;28;20033;-54
2023/09/11 08:23:57;;;;;;;18.77;13.48;;;25.30;73.60;;;;;;5039744;28;20024;-53
2023/09/11 08:26:24;;;;;;;19.67;12.25;;;25.30;73.70;;;;;;5052260;28;20040;-55
2023/09/11 08:28:50;;;;;;;19.42;13.93;;;25.60;74.10;;;;;;5062351;28;20056;-51
2023/09/11 08:31:16;;;;;;;17.08;14.07;;;25.70;72.80;;;;;;5062774;28;20526;-54
2023/09/11 08:33:46;;;;;;;16.88;13.20;;;25.80;72.90;;;;;;5050033;28;20499;-54
2023/09/11 08:36:13;;;;;;;18.67;11.52;;;25.80;72.60;;;;;;5032401;28;20029;-50
2023/09/11 08:38:41;;;;;;;18.02;11.50;;;25.90;73.00;;;;;;5029898;28;20476;-49
2023/09/11 08:41:10;;;;;;;14.45;11.82;;;26.00;72.50;;;;;;5056564;28;20029;-49
2023/09/11 08:43:39;;;;;;;15.73;11.07;;;26.20;73.40;;;;;;5059313;28;20040;-49
2023/09/11 08:46:09;;;;;;;14.77;11.40;;;26.40;73.10;;;;;;5057891;28;20376;-49
2023/09/11 08:48:38;;;;;;;18.48;9.85;;;26.50;74.20;;;;;;5046896;28;20043;-52
2023/09/11 08:51:18;;;;;;;13.68;11.13;;;26.60;72.20;;;;;;5049968;28;20498;-49
2023/09/11 08:53:48;;;;;;;15.65;12.93;;;26.60;72.00;;;;;;5053065;28;20033;-49
2023/09/11 08:56:15;;;;;;;13.75;11.52;;;26.70;71.00;;;;;;5061526;28;20032;-55
2023/09/11 08:58:43;;;;;;;12.75;10.50;;;26.80;71.40;;;;;;5048968;28;20029;-50
2023/09/11 09:01:10;;;;;;;20.17;11.77;;;26.80;72.40;;;;;;5055144;28;20139;-55
2023/09/11 09:03:39;;;;;;;19.05;10.55;;;26.90;70.50;;;;;;5062469;28;20036;-56
2023/09/11 09:06:05;;;;;;;15.82;12.45;;;26.90;71.20;;;;;;5058280;28;20028;-56
2023/09/11 09:08:33;;;;;;;18.33;11.13;;;26.90;70.20;;;;;;5047775;28;20103;-56
2023/09/11 09:11:00;;;;;;;11.68;10.18;;;26.90;70.40;;;;;;5055620;28;20044;-56
2023/09/11 09:13:31;;;;;;;17.65;11.32;;;26.90;70.90;;;;;;5050101;28;20033;-55
2023/09/11 09:15:59;;;;;;;18.10;11.73;;;26.90;72.30;;;;;;5050583;28;20099;-56
2023/09/11 09:18:25;;;;;;;18.23;10.27;;;27.10;70.60;;;;;;5065087;28;20045;-56
2023/09/11 09:20:51;;;;;;;14.38;10.02;;;27.30;71.20;;;;;;5030866;28;20030;-56
2023/09/11 09:23:30;;;;;;;14.40;10.23;;;27.40;71.20;;;;;;5054426;28;20028;-56
2023/09/11 09:26:04;;;;;;;21.63;10.37;;;27.40;70.70;;;;;;5062595;28;20041;-56
2023/09/11 09:28:33;;;;;;;14.48;11.75;;;27.40;69.90;;;;;;5031618;28;20037;-56
2023/09/11 09:31:01;;;;;;;12.70;10.65;;;27.30;69.70;;;;;;5051040;28;20200;-55
2023/09/11 09:33:29;;;;;;;12.73;10.00;;;27.30;70.80;;;;;;5051216;28;20044;-56
2023/09/11 09:35:56;;;;;;;13.95;10.40;;;27.40;71.00;;;;;;5049457;28;20091;-55
2023/09/11 09:38:25;;;;;;;19.23;11.88;;;27.60;70.60;;;;;;5041939;28;20025;-54
2023/09/11 09:40:54;;;;;;;18.55;10.18;;;27.60;69.00;;;;;;5054458;28;20442;-56
2023/09/11 09:43:22;;;;;;;14.13;10.52;;;27.70;71.20;;;;;;5058948;28;20068;-56
2023/09/11 09:45:48;;;;;;;13.95;10.00;;;27.70;68.70;;;;;;5042933;28;20033;-56
2023/09/11 09:48:35;;;;;;;19.55;10.50;;;27.80;69.60;;;;;;5052659;28;20120;-55
2023/09/11 09:51:02;;;;;;;12.02;8.90;;;27.90;68.40;;;;;;5054021;28;20116;-55
2023/09/11 09:53:33;;;;;;;15.10;10.20;;;27.90;69.20;;;;;;5037676;28;20045;-54
2023/09/11 09:56:07;;;;;;;15.35;9.95;;;28.10;69.20;;;;;;5037170;28;20029;-55
2023/09/11 09:58:42;;;;;;;18.73;9.80;;;28.30;69.30;;;;;;5036921;28;20021;-50
2023/09/11 10:01:31;;;;;;;14.43;10.52;;;28.30;67.60;;;;;;5029556;28;20382;-56
2023/09/11 10:03:58;;;;;;;14.32;10.40;;;28.30;68.00;;;;;;5013387;28;20547;-56
2023/09/11 10:06:27;;;;;;;16.25;10.57;;;28.20;70.00;;;;;;5042025;28;20104;-58
2023/09/11 10:09:16;;;;;;;19.02;11.45;;;28.30;69.50;;;;;;5045020;28;20478;-57
2023/09/11 10:11:44;;;;;;;;;;;28.20;68.00;;;;;;5031436;28;20057;-58
2023/09/11 10:14:12;;;;;;;20.83;10.90;;;28.30;70.30;;;;;;5027079;28;19913;-58
2023/09/11 10:16:42;;;;;;;14.00;10.50;;;28.40;69.40;;;;;;5032525;28;20036;-58
2023/09/11 10:19:09;;;;;;;16.88;11.13;;;28.50;69.20;;;;;;5027587;28;20029;-56
2023/09/11 10:21:37;;;;;;;13.05;9.73;;;28.70;69.00;;;;;;5040634;28;20086;-57
2023/09/11 10:24:06;;;;;;;12.27;9.82;;;28.80;69.20;;;;;;5027981;28;20024;-58
2023/09/11 10:26:43;;;;;;;14.20;9.65;;;28.80;68.30;;;;;;5013150;28;20025;-58
2023/09/11 10:29:43;;;;;;;13.43;9.50;;;28.90;67.80;;;;;;5032176;28;20037;-56
2023/09/11 10:32:24;;;;;;;11.38;9.18;;;28.90;68.30;;;;;;5030829;28;20120;-58
2023/09/11 10:34:52;;;;;;;12.25;8.63;;;29.10;67.70;;;;;;5033271;28;20786;-56
2023/09/11 10:37:23;;;;;;;13.27;9.20;;;29.10;67.20;;;;;;5030911;28;20384;-57
2023/09/11 10:39:52;;;;;;;12.38;8.75;;;29.10;67.80;;;;;;5028622;28;20035;-57
2023/09/11 10:42:19;;;;;;;23.47;10.43;;;29.20;68.30;;;;;;5027127;28;20026;-57
2023/09/11 10:44:45;;;;;;;14.57;8.27;;;29.10;66.40;;;;;;5041466;28;20379;-56
2023/09/11 10:47:11;;;;;;;13.77;9.00;;;29.10;68.00;;;;;;5027822;28;20037;-57
2023/09/11 10:49:41;;;;;;;11.90;8.25;;;29.00;66.80;;;;;;5029431;28;20359;-54
2023/09/11 10:52:08;;;;;;;16.45;8.40;;;29.20;66.60;;;;;;5037582;28;20101;-56
2023/09/11 10:54:36;;;;;;;13.63;8.30;;;29.10;65.80;;;;;;5036732;28;20053;-56
2023/09/11 10:57:04;;;;;;;10.98;8.80;;;29.00;65.50;;;;;;5037386;28;20032;-55
2023/09/11 10:59:32;;;;;;;13.10;9.23;;;28.90;66.40;;;;;;5041314;28;20098;-57
2023/09/11 11:01:58;;;;;;;14.55;8.55;;;28.90;65.00;;;;;;5033128;28;20464;-56
2023/09/11 11:04:24;;;;;;;13.00;8.70;;;28.90;66.50;;;;;;5010201;28;20096;-59
2023/09/11 11:06:56;;;;;;;14.07;7.93;;;29.00;65.50;;;;;;5036038;28;20663;-56
2023/09/11 11:09:34;;;;;;;15.57;9.48;;;29.00;66.10;;;;;;5011431;28;20045;-55
2023/09/11 11:12:13;;;;;;;18.38;9.05;;;28.90;66.80;;;;;;5019413;28;20391;-55
2023/09/11 11:14:39;;;;;;;16.55;8.55;;;29.10;66.40;;;;;;5018482;28;20037;-57
2023/09/11 11:17:35;;;;;;;13.07;8.27;;;29.10;65.80;;;;;;5026830;28;20024;-58
2023/09/11 11:20:06;;;;;;;16.20;9.23;;;29.20;65.50;;;;;;5019198;28;20055;-58
2023/09/11 11:22:38;;;;;;;10.75;7.72;;;29.20;66.40;;;;;;5045471;28;20033;-55
2023/09/11 11:25:08;;;;;;;12.85;8.13;;;29.30;65.80;;;;;;5032981;28;20355;-57
2023/09/11 11:27:38;;;;;;;15.35;9.35;;;29.30;68.10;;;;;;5031027;28;20548;-56
2023/09/11 11:30:05;;;;;;;12.45;8.98;;;29.30;64.20;;;;;;5025851;28;20059;-58
2023/09/11 11:32:34;;;;;;;13.82;8.70;;;29.20;64.80;;;;;;5033545;28;20120;-58
2023/09/11 11:35:04;;;;;;;15.70;8.73;;;29.30;65.90;;;;;;5048992;28;20106;-57
2023/09/11 11:37:38;;;;;;;15.57;7.55;;;29.30;64.20;;;;;;5032869;28;20123;-58
2023/09/11 11:40:09;;;;;;;13.65;8.65;;;29.40;65.50;;;;;;5032753;28;20068;-58
2023/09/11 11:42:40;;;;;;;15.70;8.40;;;29.40;65.50;;;;;;5045952;28;20037;-58
2023/09/11 11:45:07;;;;;;;9.98;8.35;;;29.40;64.80;;;;;;5034443;28;20051;-57
2023/09/11 11:47:37;;;;;;;14.15;8.52;;;29.40;64.20;;;;;;5028145;28;20649;-56
2023/09/11 11:50:12;;;;;;;;;;;29.30;63.30;;;;;;5025888;28;20112;-56
2023/09/11 11:52:45;;;;;;;15.85;8.68;;;29.30;65.00;;;;;;5040642;28;19920;-58
2023/09/11 11:55:24;;;;;;;10.07;7.63;;;29.40;64.10;;;;;;5060694;28;20036;-56
2023/09/11 11:57:56;;;;;;;12.38;7.75;;;29.20;63.90;;;;;;5044594;28;20028;-55
2023/09/11 12:00:23;;;;;;;13.05;8.00;;;29.20;64.00;;;;;;5059630;28;20036;-57
2023/09/11 12:02:53;;;;;;;16.23;8.10;;;29.20;62.40;;;;;;5045078;28;20098;-57
2023/09/11 12:05:22;;;;;;;;;;;29.20;64.10;;;;;;5026765;28;20029;-58
2023/09/11 12:07:52;;;;;;;16.02;8.15;;;29.10;63.60;;;;;;5066381;28;20290;-57
2023/09/11 12:10:19;;;;;;;16.80;8.88;;;29.10;63.10;;;;;;5048997;28;20037;-58
2023/09/11 12:12:46;;;;;;;16.35;8.90;;;29.00;63.80;;;;;;5034330;28;20057;-55
2023/09/11 12:15:14;;;;;;;16.83;7.47;;;29.00;63.60;;;;;;5051804;28;20470;-58
2023/09/11 12:17:49;;;;;;;20.45;8.65;;;29.00;64.60;;;;;;5050632;28;20392;-56
2023/09/11 12:20:33;;;;;;;15.23;8.00;;;29.10;64.20;;;;;;5060298;28;20078;-56
2023/09/11 12:23:02;;;;;;;11.77;8.13;;;29.20;63.60;;;;;;5031512;28;20029;-58
2023/09/11 12:25:29;;;;;;;13.52;9.05;;;29.20;63.50;;;;;;5040613;28;20033;-58
2023/09/11 12:27:56;;;;;;;13.48;8.40;;;29.20;63.70;;;;;;5048896;28;20107;-59
2023/09/11 12:30:22;;;;;;;15.25;8.88;;;29.30;64.80;;;;;;5043809;28;20032;-57
2023/09/11 12:32:49;;;;;;;18.67;8.30;;;29.30;63.50;;;;;;5044846;28;20043;-58
2023/09/11 12:35:31;;;;;;;10.43;7.63;;;29.30;63.10;;;;;;5051642;28;20656;-58
2023/09/11 12:37:58;;;;;;;10.15;7.25;;;29.20;62.90;;;;;;5045425;28;20549;-55
2023/09/11 12:40:27;;;;;;;11.50;7.82;;;29.30;64.40;;;;;;5050609;28;20035;-58